METAR Data
IDs: Format: Raw Decoded Include TAF

Data at: 1205 UTC 23 Sep 2018

KFSM 231153Z AUTO 08007KT 10SM OVC014 18/17 A3000 RMK AO2 SLP154 70043 T01830167 10183 20183 53001
KFSM 231053Z AUTO 08007KT 10SM OVC013 18/17 A2999 RMK AO2 SLP154 T01830167
KFSM 230953Z AUTO 09004KT 10SM OVC011 18/17 A2999 RMK AO2 SLP154 T01830172
KFSM 230904Z AUTO 06006KT 10SM FEW009 OVC014 18/17 A2999 RMK AO2 T01830172
KFSM 230853Z AUTO 06006KT 10SM OVC014 18/17 A2999 RMK AO2 SLP154 T01830172 58007
KFSM 230829Z AUTO 08007KT 10SM OVC014 18/17 A2999 RMK AO2 T01830172
KFSM 230753Z AUTO 08008KT 10SM OVC015 18/17 A3000 RMK AO2 SLP156 T01830172
KFSM 230653Z AUTO 10003KT 10SM OVC015 18/17 A3001 RMK AO2 SLP161 T01830172
KFSM 230553Z AUTO 07009KT 10SM OVC016 18/17 A3002 RMK AO2 SLP161 60002 T01830172 10183 20178 402000178 58012
KFSM 230453Z AUTO 09007KT 10SM OVC018 18/17 A3004 RMK AO2 SLP169 T01830172
KFSM 230353Z 09009KT 10SM FEW009 BKN018 OVC029 18/17 A3004 RMK AO2 SLP171 T01830172
KFSM 230310Z 09005KT 10SM SCT007 OVC021 18/18 A3005 RMK AO2 T01830178
KFSM 230253Z 00000KT 10SM OVC019 18/18 A3005 RMK AO2 SLP173 60002 T01830178 53004
KFSM 230207Z 08005KT 10SM FEW008 SCT013 BKN022 18/17 A3004 RMK AO2 T01830172
KFSM 230153Z 07007KT 10SM BKN010 BKN015 OVC020 18/17 A3005 RMK AO2 RAE27 SLP172 P0000 T01830172
KFSM 230136Z 05003KT 10SM BKN010 BKN018 OVC060 18/18 A3005 RMK AO2 RAE27 P0000 T01830178
KFSM 230126Z 06003KT 10SM -RA SCT008 BKN018 OVC090 18/17 A3005 RMK AO2 P0000 T01830172
KFSM 230053Z 10003KT 9SM -RA BKN005 BKN060 OVC095 18/18 A3004 RMK AO2 SLP169 P0002 T01830178
KFSM 230032Z 10006KT 9SM -RA FEW007 SCT031 OVC080 18/18 A3003 RMK AO2 P0002 T01830178
KFSM 230023Z 11006KT 5SM -RA BR FEW010 BKN026 OVC085 18/18 A3003 RMK AO2 P0002 T01830178
KFSM 230001Z 07006KT 2 1/2SM RA BR SCT008 OVC016 18/18 A3003 RMK AO2 P0000 T01830178
KFSM 222353Z 02006KT 9SM -RA FEW010 OVC016 18/17 A3004 RMK AO2 SLP169 P0000 60039 T01830172 10183 20178 55002
KFSM 222349Z 03007KT 10SM -RA SCT010 OVC016 18/17 A3004 RMK AO2 P0000
KFSM 222341Z 02007KT 10SM -RA BKN010 OVC016 18/17 A3004 RMK AO2 P0000 T01830172
KFSM 222311Z 06005KT 10SM -RA BKN008 BKN012 OVC021 18/17 A3003 RMK AO2 P0000 T01830172
KFSM 222253Z 10006KT 10SM -RA BKN010 OVC017 18/17 A3003 RMK AO2 SLP165 P0002 T01830172
KFSM 222232Z 11007KT 10SM -RA BKN008 OVC014 18/17 A3003 RMK AO2 P0002 T01830172
KFSM 222219Z 08008KT 10SM -RA SCT008 OVC014 18/17 A3004 RMK AO2 P0002 T01830172
KFSM 222210Z 06006KT 10SM -RA BKN008 OVC014 18/18 A3004 RMK AO2 P0001 T01830178
KFSM 222153Z 07006KT 7SM RA FEW007 BKN012 OVC016 18/17 A3005 RMK AO2 SLP172 P0011 T01830172
KFSM 222146Z 07006KT 8SM -RA SCT008 OVC016 18/17 A3005 RMK AO2 P0010 T01830172
KFSM 222138Z 07006KT 8SM -RA SCT008 OVC014 18/17 A3004 RMK AO2 P0009 T01830172
KFSM 222124Z 10003KT 6SM -RA BR BKN008 OVC014 18/17 A3004 RMK AO2 P0008 T01830172
KFSM 222053Z 07007KT 4SM RA BR FEW009 OVC017 18/17 A3004 RMK AO2 SLP171 P0011 60026 T01830172 56019
KFSM 222040Z 08006KT 5SM RA BR FEW009 BKN016 OVC050 18/17 A3005 RMK AO2 P0008 T01830172
KFSM 222000Z 08009KT 7SM -RA BKN014 OVC030 18/17 A3006 RMK AO2 P0001 T01780172
KFSM 221953Z 08008KT 8SM -RA BKN016 OVC028 18/17 A3006 RMK AO2 SLP177 P0008 T01830172
KFSM 221853Z 09008KT 10SM -RA SCT011 BKN016 OVC028 18/17 A3008 RMK AO2 SLP184 P0007 T01830167
KFSM 221753Z 07010KT 7SM RA BKN013 OVC028 18/17 A3010 RMK AO2 RAE03B30 SLP190 P0002 60002 T01830167 10189 20178 58004
KFSM 221653Z 09009KT 10SM -RA BKN012 OVC028 19/17 A3012 RMK AO2 RAB47 SLP196 P0000 T01890167
KFSM 221646Z 08007KT 10SM BKN010 BKN014 OVC028 18/17 A3012 RMK AO2 T01830167
KFSM 221626Z 09006KT 10SM SCT010 BKN020 OVC028 18/17 A3012 RMK AO2 T01830167
KFSM 221553Z 07009KT 10SM OVC014 18/17 A3013 RMK AO2 RAB1457E29 SLP199 P0000 T01830167
KFSM 221517Z 05011KT 10SM -RA BKN015 OVC021 18/16 A3013 RMK AO2 RAB1457 P0000 T01780161
KFSM 221453Z 07008KT 10SM OVC014 18/16 A3012 RMK AO2 SLP194 60000 T01780161 53005
KFSM 221353Z 06009KT 10SM OVC020 18/17 A3011 RMK AO2 RAE36 SLP191 P0000 T01780167
KFSM 221308Z 06012KT 10SM -RA BKN024 BKN031 OVC055 18/16 A3011 RMK AO2 P0000 T01780161
KFSM 221253Z 06011KT 10SM -RA SCT022 BKN031 OVC055 18/16 A3011 RMK AO2 SLP192 P0000 T01780161
KFSM 221153Z 07011KT 10SM -RA BKN019 OVC027 18/17 A3010 RMK AO2 SLP188 P0005 60060 70501 T01780167 10200 20178 53009
KFSM 221053Z 05013KT 10SM -RA OVC020 18/17 A3009 RMK AO2 SLP185 P0001 T01830167
KFSM 220953Z AUTO 06011KT 10SM -RA BKN026 OVC031 19/17 A3008 RMK AO2 SLP182 P0002 T01890172
KFSM 220853Z AUTO 07012KT 10SM -RA SCT060 OVC090 19/18 A3007 RMK AO2 SLP179 P0010 60052 T01940183 58013
KFSM 220802Z AUTO 08006KT 3SM +RA BR FEW008 BKN030 OVC035 19/19 A3009 RMK AO2 P0005 T01940189
KFSM 220753Z AUTO 07007KT 3SM +RA BR SCT006 BKN027 OVC035 19/19 A3009 RMK AO2 SLP186 P0009 T01940189
KFSM 220720Z AUTO 05006KT 6SM RA BR SCT006 BKN010 OVC035 20/19 A3009 RMK AO2 P0003 T02000189
KFSM 220653Z AUTO 05006KT 5SM -RA BR BKN006 OVC014 20/19 A3010 RMK AO2 SLP187 P0033 T02000194
KFSM 220644Z AUTO 05008KT 3SM +RA BR BKN006 BKN013 OVC037 20/19 A3010 RMK AO2 P0032 T02000194
KFSM 220638Z AUTO 04006KT 2 1/2SM +RA BR SCT006 BKN013 OVC035 20/19 A3010 RMK AO2 P0029 T02000194
KFSM 220623Z AUTO 05008KT 3SM RA BR FEW008 BKN026 OVC035 20/19 A3010 RMK AO2 P0022 T02000194
KFSM 220607Z AUTO 04009KT 2SM +RA BR FEW008 SCT018 OVC025 20/19 A3011 RMK AO2 P0013 T02000194
KFSM 220553Z AUTO 01006KT 4SM +RA BR FEW007 SCT013 OVC021 20/19 A3011 RMK AO2 SLP192 P0029 60089 T02000194 10222 20200 402780200 51009
KFSM 220520Z AUTO 05010KT 5SM +RA BR SCT009 BKN016 OVC022 21/19 A3010 RMK AO2 P0010 T02060194
KFSM 220453Z AUTO 05009KT 6SM RA BR BKN011 BKN016 OVC021 21/19 A3011 RMK AO2 SLP192 P0011 T02060194
KFSM 220450Z AUTO 05010G14KT 7SM RA BKN009 BKN016 OVC021 21/19 A3011 RMK AO2 P0010
KFSM 220440Z AUTO 06011KT 6SM RA BR SCT009 BKN015 OVC023 21/20 A3010 RMK AO2 P0009 T02060200
KFSM 220404Z AUTO 05011KT 6SM RA BR SCT007 BKN012 OVC026 21/20 A3010 RMK AO2 P0002 T02110200
KFSM 220353Z AUTO 05013KT 4SM RA BR BKN007 BKN013 OVC029 21/21 A3009 RMK AO2 SLP186 P0008 T02110206
KFSM 220323Z 06009KT 5SM RA BR BKN009 OVC031 22/21 A3008 RMK AO2 P0002 T02170206
KFSM 220253Z 07008KT 10SM -RA FEW006 OVC045 22/21 A3008 RMK AO2 SLP183 P0003 60041 T02170211 53011
KFSM 220235Z 06010KT 10SM -RA FEW007 BKN041 OVC049 22/21 A3007 RMK AO2 P0002 T02170206
KFSM 220153Z 06009KT 8SM -RA BKN036 OVC045 22/21 A3007 RMK AO2 SLP177 P0029 T02170206
KFSM 220140Z 07010KT 5SM RA BR OVC038 21/21 A3006 RMK AO2 P0027 T02110206
KFSM 220132Z 07012KT 2 1/2SM +RA BR SCT031 BKN043 OVC050 21/21 A3006 RMK AO2 P0025 T02110206
KFSM 220053Z 06011KT 5SM +RA BR BKN036 OVC045 21/21 A3005 RMK AO2 SLP171 P0009 T02110206